Domov               UVHVVR             MKGP            O straneh              
ZDRAVSTVENO VARSTVO RASTLIN
  MREŽA AGROMET. POSTAJ
 ► PROGNOSTIČNA OBVESTILA
AGROMETEOROLOŠKI PODATKI -
ARSO
OBVLADOVANJE TVEGANJ ZARADI
NEUGODNIH VREMENSKIH RAZMER
  ► NARAVNE NESREČE
  ► SUŠA/MOČA
  ► NAMAKANJE
  ► ŽLED (gozdarstvo)
KARTOGRAFSKI PRIKAZI
SPLETNE POVEZAVE
PROJEKTI IN PUBLIKACIJE

AGROMETEOROLOŠKA MREŽA: VREMENSKE POSTAJE IN FENOLOŠKA OPAZOVANJA

Pregled podatkov za lokacijo Pradisiol, meteorološka postaja 861649

Pregled senzorjev na lokaciji

ID Ime Zadnja
vrednost
Datum
zadnje
spremembe
Tip
senzorja
4074 Temperatura 2 m (°C) 13,95 °C 11.12.2017 10:00 50YA
4075 Relativna vlaga 2 m (% RH) 80,91 % RH 11.12.2017 10:00 50YA
4076 Omočenost lista (U) 7 U 11.12.2017 10:00 A730WET
4077 Padavine (mm) 0,6 mm 11.12.2017 10:00 Rain-O-Matic

Pregled podatkov zadnjih 24 ur

Zap.
št.
Datum in čas Pradisiol
Omočenost
lista
Padavine Relativna
vlaga
2
m
Temperatura
2
m
0 11.12.2017 10:00 7 0,6 80,91 13,95
1 11.12.2017 09:30 9 0,2 79,75 14,05
2 11.12.2017 09:00 9 0 79,2 14,07
3 11.12.2017 08:30 10 0,2 80,99 13,88
4 11.12.2017 08:00 10 0,6 85,28 13,32
5 11.12.2017 07:30 9 1,4 85,24 13,04
6 11.12.2017 07:00 9 1,6 86,54 12,68
7 11.12.2017 06:30 6 1 84,32 12,85
8 11.12.2017 06:00 8 1 84,21 12,85
9 11.12.2017 05:30 4 0,2 82,16 13,12
10 11.12.2017 05:00 9 1,4 93,04 11,88
11 11.12.2017 04:30 5 2,2 99,25 8,3
12 11.12.2017 04:00 3 3 98,74 7,69
13 11.12.2017 03:30 3 5 98,27 7,84
14 11.12.2017 03:00 3 3,6 97,21 8,4
15 11.12.2017 02:30 4 4,4 95,97 9,58
16 11.12.2017 02:00 7 2,4 93,97 10,06
17 11.12.2017 01:30 10 2 90,71 10,26
18 11.12.2017 01:00 10 1,6 88,13 10,44
19 11.12.2017 00:30 10 1,2 87,91 10,11
20 11.12.2017 00:00 10 1,6 89,1 9,46
21 10.12.2017 23:30 9 0,8 87,48 9,19
22 10.12.2017 23:00 9 0,8 86,52 8,77
23 10.12.2017 22:30 9 0,6 86,1 8,39
24 10.12.2017 22:00 7 1 87,95 7,83
25 10.12.2017 21:30 5 0,8 95,77 6,19
26 10.12.2017 21:00 6 0,8 98,53 2,91
27 10.12.2017 20:30 6 1,2 98,29 2,8
28 10.12.2017 20:00 5 0,8 98,06 2,74
29 10.12.2017 19:30 4 1,2 97,71 2,72
30 10.12.2017 19:00 6 1,6 97,34 2,88
31 10.12.2017 18:30 9 2,8 96,93 2,88
32 10.12.2017 18:00 10 1,8 96,54 3,22
33 10.12.2017 17:30 10 1 96,02 3,34
34 10.12.2017 17:00 10 0,6 94,56 3,42
35 10.12.2017 16:30 10 0,4 91,8 3,68
36 10.12.2017 16:00 10 0 86,43 4,18
37 10.12.2017 15:30 0 0 80,95 4,66
38 10.12.2017 15:00 0 0 74,2 5,49
39 10.12.2017 14:30 0 0 68,14 6,25
40 10.12.2017 14:00 0 0 56,22 7,31
41 10.12.2017 13:30 0 0 50,45 7,2
42 10.12.2017 13:00 0 0 49,38 7,03
43 10.12.2017 12:30 0 0 50,79 6,93
44 10.12.2017 12:00 0 0 52,74 6,87
45 10.12.2017 11:30 0 0 52,84 6,72
46 10.12.2017 11:00 0 0 53,49 6,71
© 2011 Ministrstvo za kmetijstvo, gozdarstvo in prehrano. Vse pravice pridržane.